Zagreb — 9AA5910 — position and weather

sailwx.info

Track history (hours):
 
Tides and Currents Weather Stations Pressure Air Temp Water Temp Dewpoint Dewpoint Depression Visibility Wind Speed Wind Dir Waves Ship Positions

Zagreb

Last reported at 2017-Nov-25 00:00 UTC. Time now 2017-Nov-25 00:25 UTC.
Position N 55°28' E 012°40'.

Length 229 m; draft 6.9 m.

Type: Cargo ship. MMSI: 238249000.

Date/timePositionNaut miles runAvg speedWind from/ knotsBaromVisibWave heightAir tempDewpointWater temp
2017-Nov-25 00:00N 55°28' E 012°40'613.0
2017-Nov-24 23:30N 55°34' E 012°42'5 9.8
2017-Nov-24 23:00N 55°39' E 012°41'611.3
2017-Nov-24 22:30N 55°44' E 012°41'612.7
2017-Nov-24 22:00N 55°51' E 012°41'612.5
2017-Nov-24 21:30N 55°57' E 012°39'612.2
2017-Nov-24 21:00N 56°03' E 012°39'612.5
2017-Nov-24 20:30N 56°07' E 012°30'713.1
2017-Nov-24 20:00N 56°11' E 012°21'713.5
2017-Nov-24 19:30N 56°15' E 012°11'5113.0
2017-Nov-24 15:36N 57°03' E 011°40'113.1
2017-Nov-24 15:30N 57°04' E 011°39'613.0
2017-Nov-24 15:00N 57°10' E 011°35'713.2
2017-Nov-24 14:29N 57°17' E 011°31'713.5
2017-Nov-24 13:59N 57°23' E 011°27'613.3
2017-Nov-24 13:30N 57°29' E 011°22'713.4
2017-Nov-24 13:00N 57°33' E 011°13'713.3
2017-Nov-24 12:30N 57°38' E 011°03'713.4
2017-Nov-24 12:00N 57°42' E 010°54'713.5
2017-Nov-24 11:30N 57°47' E 010°45'714.4
2017-Nov-24 11:00N 57°47' E 010°31'714.6
2017-Nov-24 10:30N 57°46' E 010°18'16212.9
2017-Nov-23 22:00N 56°04' E 006°28'613.0
2017-Nov-23 21:30N 55°58' E 006°23'713.2
2017-Nov-23 20:59N 55°52' E 006°18'713.0
2017-Nov-23 20:29N 55°46' E 006°14'612.1
2017-Nov-23 20:00N 55°40' E 006°14'13111.5
2017-Nov-23 08:39N 53°31' E 006°47'2 9.9
2017-Nov-23 08:27N 53°29' E 006°49'3 5.9
2017-Nov-23 08:00N 53°27' E 006°50'0 0.9
2017-Nov-23 07:28N 53°27' E 006°51'0 0.0
2017-Nov-23 06:55N 53°27' E 006°51'0 0.0
2017-Nov-23 06:28N 53°27' E 006°51'0 0.0
2017-Nov-23 05:58N 53°27' E 006°51'0 0.0
2017-Nov-23 05:28N 53°27' E 006°51'0 0.0
2017-Nov-23 04:55N 53°27' E 006°51'0 0.0
2017-Nov-23 04:28N 53°27' E 006°51'0 0.0
2017-Nov-23 03:58N 53°27' E 006°51'0 0.0
2017-Nov-23 03:25N 53°27' E 006°51'0 0.0
2017-Nov-23 02:58N 53°27' E 006°51'0 0.0
2017-Nov-23 02:28N 53°27' E 006°51'0 0.0
2017-Nov-23 01:55N 53°27' E 006°51'0 0.0
2017-Nov-23 01:28N 53°27' E 006°51'0 0.0
2017-Nov-23 00:55N 53°27' E 006°51'0 0.0
2017-Nov-23 00:28N 53°27' E 006°51'0 0.0
2017-Nov-22 23:58N 53°27' E 006°51'0 0.0
2017-Nov-22 23:16N 53°27' E 006°51'0 0.0
2017-Nov-22 22:58N 53°27' E 006°51'0 0.0
2017-Nov-22 22:28N 53°27' E 006°51'0 0.0
2017-Nov-22 21:55N 53°27' E 006°51'0 0.0
2017-Nov-22 21:28N 53°27' E 006°51'0 0.0
2017-Nov-22 20:58N 53°27' E 006°51'0 0.0
2017-Nov-22 20:28N 53°27' E 006°51'0 0.0
2017-Nov-22 19:43N 53°27' E 006°51'0 0.0
2017-Nov-22 19:28N 53°27' E 006°51'  
2017-Nov-19 14:41N 57°50' E 010°26'312.0
2017-Nov-19 14:27N 57°50' E 010°31'611.3
2017-Nov-19 13:58N 57°50' E 010°41'611.4
2017-Nov-19 13:29N 57°47' E 010°50'611.6
2017-Nov-19 13:00N 57°43' E 010°58'611.5
2017-Nov-19 12:29N 57°39' E 011°06'611.5
2017-Nov-19 12:00N 57°35' E 011°13'611.4
2017-Nov-19 11:30N 57°31' E 011°21'510.9
2017-Nov-19 11:01N 57°27' E 011°27'510.2
2017-Nov-19 10:30N 57°22' E 011°30'510.1
2017-Nov-19 10:00N 57°17' E 011°33'510.5
2017-Nov-19 09:29N 57°12' E 011°37'510.9
2017-Nov-19 09:00N 57°07' E 011°40'11210.1
2017-Nov-18 22:00N 55°17' E 011°04'510.4
2017-Nov-18 21:30N 55°12' E 011°06'510.8
2017-Nov-18 21:00N 55°07' E 011°03'611.5
2017-Nov-18 20:30N 55°02' E 011°02'510.8
2017-Nov-18 20:00N 54°57' E 010°56'510.7
2017-Nov-18 19:30N 54°53' E 010°51'510.8
2017-Nov-18 19:00N 54°48' E 010°50'611.3
2017-Nov-18 18:30N 54°42' E 010°47'4 8.9
2017-Nov-18 18:00N 54°38' E 010°51'510.5
2017-Nov-18 17:31N 54°36' E 010°60'510.5
2017-Nov-18 17:01N 54°37' E 011°09'510.7
2017-Nov-18 16:30N 54°34' E 011°17'510.9
2017-Nov-18 16:00N 54°32' E 011°26'510.8
2017-Nov-18 15:30N 54°30' E 011°34'611.1
2017-Nov-18 15:01N 54°28' E 011°43'610.8
2017-Nov-18 14:29N 54°27' E 011°53'510.5
2017-Nov-18 14:00N 54°26' E 012°01'510.5
2017-Nov-18 13:30N 54°26' E 012°10'60 9.3
2017-Nov-18 07:04N 54°59' E 013°38'410.8
2017-Nov-18 06:42N 55°00' E 013°44'310.9
2017-Nov-18 06:28N 55°01' E 013°49'710.8
2017-Nov-18 05:47N 55°03' E 014°01'310.5
2017-Nov-18 05:27N 55°05' E 014°06'511.0
2017-Nov-18 04:57N 55°10' E 014°12'510.8
2017-Nov-18 04:30N 55°13' E 014°17'611.0
2017-Nov-18 03:59N 55°18' E 014°23'1011.3
2017-Nov-18 03:07N 55°26' E 014°34'311.0
2017-Nov-18 02:49N 55°27' E 014°39'511.3
2017-Nov-18 02:23N 55°30' E 014°47'611.2
2017-Nov-18 01:53N 55°32' E 014°55'411.3
2017-Nov-18 01:30N 55°34' E 015°02'611.2
2017-Nov-18 01:01N 55°36' E 015°11'611.2
2017-Nov-18 00:30N 55°39' E 015°20'611.3
2017-Nov-18 00:00N 55°41' E 015°29'611.3
2017-Nov-17 23:31N 55°42' E 015°39'611.5
2017-Nov-17 23:01N 55°43' E 015°49'611.7
2017-Nov-17 22:30N 55°45' E 015°59'611.5
2017-Nov-17 22:00N 55°46' E 016°09'611.4
2017-Nov-17 21:30N 55°48' E 016°19'611.3
2017-Nov-17 21:01N 55°49' E 016°29'611.3
2017-Nov-17 20:30N 55°50' E 016°38'30411.1
2017-Nov-16 17:04N 59°35' E 023°01'112.1
2017-Nov-16 17:00N 59°35' E 023°02'612.2
2017-Nov-16 16:30N 59°37' E 023°14'612.0
2017-Nov-16 16:01N 59°39' E 023°25'611.9
2017-Nov-16 15:31N 59°41' E 023°37'612.1
2017-Nov-16 15:01N 59°42' E 023°48'612.0
2017-Nov-16 14:30N 59°44' E 023°60'711.8
2017-Nov-16 13:55N 59°45' E 024°13'511.9
2017-Nov-16 13:30N 59°47' E 024°22'612.1
2017-Nov-16 13:00N 59°48' E 024°34'611.8
2017-Nov-16 12:31N 59°49' E 024°45'611.5
2017-Nov-16 12:00N 59°50' E 024°57'611.6
2017-Nov-16 11:30N 59°51' E 025°08'711.3
2017-Nov-16 10:56N 59°53' E 025°21'511.4
2017-Nov-16 10:30N 59°54' E 025°30'2111.7
2017-Nov-16 08:41N 59°59' E 026°12'212.1
2017-Nov-16 08:30N 59°59' E 026°16'612.2
2017-Nov-16 08:00N 60°01' E 026°28'611.7
2017-Nov-16 07:31N 60°01' E 026°39'612.0
2017-Nov-16 07:01N 60°00' E 026°51'612.0
2017-Nov-16 06:30N 59°59' E 027°03'612.5
2017-Nov-16 06:00N 60°02' E 027°14'612.5
2017-Nov-16 05:30N 60°06' E 027°24'612.8
2017-Nov-16 05:00N 60°09' E 027°35'612.6
2017-Nov-16 04:31N 60°12' E 027°46'612.4
2017-Nov-16 04:01N 60°11' E 027°58'612.4
2017-Nov-16 03:30N 60°09' E 028°11'612.1
2017-Nov-16 03:00N 60°06' E 028°21'611.8
2017-Nov-16 02:30N 60°03' E 028°32'5 9.0
2017-Nov-16 02:00N 59°59' E 028°36'4 7.1
2017-Nov-16 01:30N 59°56' E 028°34'5 9.4
2017-Nov-16 01:00N 59°52' E 028°29'612.0
2017-Nov-16 00:30N 59°47' E 028°25'4 8.2
2017-Nov-16 00:00N 59°43' E 028°25'1 1.8
2017-Nov-15 23:27N 59°41' E 028°25'0 0.0
2017-Nov-15 23:00N 59°41' E 028°25'0 0.0
2017-Nov-15 22:30N 59°41' E 028°25'0 0.0
2017-Nov-15 21:57N 59°41' E 028°25'0 0.0
2017-Nov-15 21:30N 59°41' E 028°25'0 0.0
2017-Nov-15 21:00N 59°41' E 028°25'0 0.0
2017-Nov-15 20:30N 59°41' E 028°25'0 0.0
2017-Nov-15 20:00N 59°41' E 028°25'0 0.0
2017-Nov-15 19:18N 59°41' E 028°25'0 0.0
2017-Nov-15 19:00N 59°41' E 028°25'0 0.0
2017-Nov-15 18:30N 59°41' E 028°25'0 0.0
2017-Nov-15 18:00N 59°41' E 028°25'0 0.0
2017-Nov-15 17:30N 59°41' E 028°25'0 0.0
2017-Nov-15 17:00N 59°41' E 028°25'0 0.0
2017-Nov-15 16:30N 59°41' E 028°25'0 0.0
2017-Nov-15 16:00N 59°41' E 028°25'0 0.0
2017-Nov-15 15:30N 59°41' E 028°25'0 0.0
2017-Nov-15 15:00N 59°41' E 028°25'0 0.0
2017-Nov-15 14:21N 59°41' E 028°25'0 0.0
2017-Nov-15 13:54N 59°41' E 028°25'0 0.0
2017-Nov-15 13:24N 59°41' E 028°25'0 0.0
2017-Nov-15 12:51N 59°41' E 028°25'0 0.0
2017-Nov-15 12:24N 59°41' E 028°25'0 0.0
2017-Nov-15 11:54N 59°41' E 028°25'0 0.0
2017-Nov-15 11:24N 59°41' E 028°25'0 0.0
2017-Nov-15 10:54N 59°41' E 028°25'0 0.0
2017-Nov-15 10:27N 59°41' E 028°25'0 0.0
2017-Nov-15 09:57N 59°41' E 028°25'0 0.0
2017-Nov-15 09:27N 59°41' E 028°25'0 0.0
2017-Nov-15 08:57N 59°41' E 028°25'0 0.0
2017-Nov-15 08:27N 59°41' E 028°25'0 0.0
2017-Nov-15 07:57N 59°41' E 028°25'0 0.0
2017-Nov-15 07:30N 59°41' E 028°25'0 0.0
2017-Nov-15 07:00N 59°41' E 028°25'0 0.0
2017-Nov-15 06:27N 59°41' E 028°25'0 0.0
2017-Nov-15 06:00N 59°41' E 028°25'0 0.0
2017-Nov-15 05:30N 59°41' E 028°25'0 0.0
2017-Nov-15 04:57N 59°41' E 028°25'0 0.0
2017-Nov-15 04:30N 59°41' E 028°25'0 0.0
2017-Nov-15 04:00N 59°41' E 028°25'0 0.0
2017-Nov-15 03:30N 59°41' E 028°25'0 0.0
2017-Nov-15 03:00N 59°41' E 028°25'0 0.0
2017-Nov-15 02:30N 59°41' E 028°25'0 0.0
2017-Nov-15 02:00N 59°41' E 028°25'0 0.0
2017-Nov-15 01:30N 59°41' E 028°25'0 0.0
2017-Nov-15 01:00N 59°41' E 028°25'0 0.0
2017-Nov-15 00:21N 59°41' E 028°25'  
Track history (hours):
 
Tides and Currents Weather Stations Pressure Air Temp Water Temp Dewpoint Dewpoint Depression Visibility Wind Speed Wind Dir Waves Ship Positions

Zagreb

Last reported at 2017-Nov-25 00:00 UTC. Time now 2017-Nov-25 00:25 UTC.
Position N 55°28' E 012°40'.

Length 229 m; draft 6.9 m.

Type: Cargo ship. MMSI: 238249000.

Date/timePositionNaut miles runAvg speedWind from/ knotsBaromVisibWave heightAir tempDewpointWater temp
2017-Nov-25 00:00N 55°28' E 012°40'613.0
2017-Nov-24 23:30N 55°34' E 012°42'5 9.8
2017-Nov-24 23:00N 55°39' E 012°41'611.3
2017-Nov-24 22:30N 55°44' E 012°41'612.7
2017-Nov-24 22:00N 55°51' E 012°41'612.5
2017-Nov-24 21:30N 55°57' E 012°39'612.2
2017-Nov-24 21:00N 56°03' E 012°39'612.5
2017-Nov-24 20:30N 56°07' E 012°30'713.1
2017-Nov-24 20:00N 56°11' E 012°21'713.5
2017-Nov-24 19:30N 56°15' E 012°11'5113.0
2017-Nov-24 15:36N 57°03' E 011°40'113.1
2017-Nov-24 15:30N 57°04' E 011°39'613.0
2017-Nov-24 15:00N 57°10' E 011°35'713.2
2017-Nov-24 14:29N 57°17' E 011°31'713.5
2017-Nov-24 13:59N 57°23' E 011°27'613.3
2017-Nov-24 13:30N 57°29' E 011°22'713.4
2017-Nov-24 13:00N 57°33' E 011°13'713.3
2017-Nov-24 12:30N 57°38' E 011°03'713.4
2017-Nov-24 12:00N 57°42' E 010°54'713.5
2017-Nov-24 11:30N 57°47' E 010°45'714.4
2017-Nov-24 11:00N 57°47' E 010°31'714.6
2017-Nov-24 10:30N 57°46' E 010°18'16212.9
2017-Nov-23 22:00N 56°04' E 006°28'613.0
2017-Nov-23 21:30N 55°58' E 006°23'713.2
2017-Nov-23 20:59N 55°52' E 006°18'713.0
2017-Nov-23 20:29N 55°46' E 006°14'612.1
2017-Nov-23 20:00N 55°40' E 006°14'13111.5
2017-Nov-23 08:39N 53°31' E 006°47'2 9.9
2017-Nov-23 08:27N 53°29' E 006°49'3 5.9
2017-Nov-23 08:00N 53°27' E 006°50'0 0.9
2017-Nov-23 07:28N 53°27' E 006°51'0 0.0
2017-Nov-23 06:55N 53°27' E 006°51'0 0.0
2017-Nov-23 06:28N 53°27' E 006°51'0 0.0
2017-Nov-23 05:58N 53°27' E 006°51'0 0.0
2017-Nov-23 05:28N 53°27' E 006°51'0 0.0
2017-Nov-23 04:55N 53°27' E 006°51'0 0.0
2017-Nov-23 04:28N 53°27' E 006°51'0 0.0
2017-Nov-23 03:58N 53°27' E 006°51'0 0.0
2017-Nov-23 03:25N 53°27' E 006°51'0 0.0
2017-Nov-23 02:58N 53°27' E 006°51'0 0.0
2017-Nov-23 02:28N 53°27' E 006°51'0 0.0
2017-Nov-23 01:55N 53°27' E 006°51'0 0.0
2017-Nov-23 01:28N 53°27' E 006°51'0 0.0
2017-Nov-23 00:55N 53°27' E 006°51'0 0.0
2017-Nov-23 00:28N 53°27' E 006°51'0 0.0
2017-Nov-22 23:58N 53°27' E 006°51'0 0.0
2017-Nov-22 23:16N 53°27' E 006°51'0 0.0
2017-Nov-22 22:58N 53°27' E 006°51'0 0.0
2017-Nov-22 22:28N 53°27' E 006°51'0 0.0
2017-Nov-22 21:55N 53°27' E 006°51'0 0.0
2017-Nov-22 21:28N 53°27' E 006°51'0 0.0
2017-Nov-22 20:58N 53°27' E 006°51'0 0.0
2017-Nov-22 20:28N 53°27' E 006°51'0 0.0
2017-Nov-22 19:43N 53°27' E 006°51'0 0.0
2017-Nov-22 19:28N 53°27' E 006°51'  
2017-Nov-19 14:41N 57°50' E 010°26'312.0
2017-Nov-19 14:27N 57°50' E 010°31'611.3
2017-Nov-19 13:58N 57°50' E 010°41'611.4
2017-Nov-19 13:29N 57°47' E 010°50'611.6
2017-Nov-19 13:00N 57°43' E 010°58'611.5
2017-Nov-19 12:29N 57°39' E 011°06'611.5
2017-Nov-19 12:00N 57°35' E 011°13'611.4
2017-Nov-19 11:30N 57°31' E 011°21'510.9
2017-Nov-19 11:01N 57°27' E 011°27'510.2
2017-Nov-19 10:30N 57°22' E 011°30'510.1
2017-Nov-19 10:00N 57°17' E 011°33'510.5
2017-Nov-19 09:29N 57°12' E 011°37'510.9
2017-Nov-19 09:00N 57°07' E 011°40'11210.1
2017-Nov-18 22:00N 55°17' E 011°04'510.4
2017-Nov-18 21:30N 55°12' E 011°06'510.8
2017-Nov-18 21:00N 55°07' E 011°03'611.5
2017-Nov-18 20:30N 55°02' E 011°02'510.8
2017-Nov-18 20:00N 54°57' E 010°56'510.7
2017-Nov-18 19:30N 54°53' E 010°51'510.8
2017-Nov-18 19:00N 54°48' E 010°50'611.3
2017-Nov-18 18:30N 54°42' E 010°47'4 8.9
2017-Nov-18 18:00N 54°38' E 010°51'510.5
2017-Nov-18 17:31N 54°36' E 010°60'510.5
2017-Nov-18 17:01N 54°37' E 011°09'510.7
2017-Nov-18 16:30N 54°34' E 011°17'510.9
2017-Nov-18 16:00N 54°32' E 011°26'510.8
2017-Nov-18 15:30N 54°30' E 011°34'611.1
2017-Nov-18 15:01N 54°28' E 011°43'610.8
2017-Nov-18 14:29N 54°27' E 011°53'510.5
2017-Nov-18 14:00N 54°26' E 012°01'510.5
2017-Nov-18 13:30N 54°26' E 012°10'60 9.3
2017-Nov-18 07:04N 54°59' E 013°38'410.8
2017-Nov-18 06:42N 55°00' E 013°44'310.9
2017-Nov-18 06:28N 55°01' E 013°49'710.8
2017-Nov-18 05:47N 55°03' E 014°01'310.5
2017-Nov-18 05:27N 55°05' E 014°06'511.0
2017-Nov-18 04:57N 55°10' E 014°12'510.8
2017-Nov-18 04:30N 55°13' E 014°17'611.0
2017-Nov-18 03:59N 55°18' E 014°23'1011.3
2017-Nov-18 03:07N 55°26' E 014°34'311.0
2017-Nov-18 02:49N 55°27' E 014°39'511.3
2017-Nov-18 02:23N 55°30' E 014°47'611.2
2017-Nov-18 01:53N 55°32' E 014°55'411.3
2017-Nov-18 01:30N 55°34' E 015°02'611.2
2017-Nov-18 01:01N 55°36' E 015°11'611.2
2017-Nov-18 00:30N 55°39' E 015°20'611.3
2017-Nov-18 00:00N 55°41' E 015°29'611.3
2017-Nov-17 23:31N 55°42' E 015°39'611.5
2017-Nov-17 23:01N 55°43' E 015°49'611.7
2017-Nov-17 22:30N 55°45' E 015°59'611.5
2017-Nov-17 22:00N 55°46' E 016°09'611.4
2017-Nov-17 21:30N 55°48' E 016°19'611.3
2017-Nov-17 21:01N 55°49' E 016°29'611.3
2017-Nov-17 20:30N 55°50' E 016°38'30411.1
2017-Nov-16 17:04N 59°35' E 023°01'112.1
2017-Nov-16 17:00N 59°35' E 023°02'612.2
2017-Nov-16 16:30N 59°37' E 023°14'612.0
2017-Nov-16 16:01N 59°39' E 023°25'611.9
2017-Nov-16 15:31N 59°41' E 023°37'612.1
2017-Nov-16 15:01N 59°42' E 023°48'612.0
2017-Nov-16 14:30N 59°44' E 023°60'711.8
2017-Nov-16 13:55N 59°45' E 024°13'511.9
2017-Nov-16 13:30N 59°47' E 024°22'612.1
2017-Nov-16 13:00N 59°48' E 024°34'611.8
2017-Nov-16 12:31N 59°49' E 024°45'611.5
2017-Nov-16 12:00N 59°50' E 024°57'611.6
2017-Nov-16 11:30N 59°51' E 025°08'711.3
2017-Nov-16 10:56N 59°53' E 025°21'511.4
2017-Nov-16 10:30N 59°54' E 025°30'2111.7
2017-Nov-16 08:41N 59°59' E 026°12'212.1
2017-Nov-16 08:30N 59°59' E 026°16'612.2
2017-Nov-16 08:00N 60°01' E 026°28'611.7
2017-Nov-16 07:31N 60°01' E 026°39'612.0
2017-Nov-16 07:01N 60°00' E 026°51'612.0
2017-Nov-16 06:30N 59°59' E 027°03'612.5
2017-Nov-16 06:00N 60°02' E 027°14'612.5
2017-Nov-16 05:30N 60°06' E 027°24'612.8
2017-Nov-16 05:00N 60°09' E 027°35'612.6
2017-Nov-16 04:31N 60°12' E 027°46'612.4
2017-Nov-16 04:01N 60°11' E 027°58'612.4
2017-Nov-16 03:30N 60°09' E 028°11'612.1
2017-Nov-16 03:00N 60°06' E 028°21'611.8
2017-Nov-16 02:30N 60°03' E 028°32'5 9.0
2017-Nov-16 02:00N 59°59' E 028°36'4 7.1
2017-Nov-16 01:30N 59°56' E 028°34'5 9.4
2017-Nov-16 01:00N 59°52' E 028°29'612.0
2017-Nov-16 00:30N 59°47' E 028°25'4 8.2
2017-Nov-16 00:00N 59°43' E 028°25'1 1.8
2017-Nov-15 23:27N 59°41' E 028°25'0 0.0
2017-Nov-15 23:00N 59°41' E 028°25'0 0.0
2017-Nov-15 22:30N 59°41' E 028°25'0 0.0
2017-Nov-15 21:57N 59°41' E 028°25'0 0.0
2017-Nov-15 21:30N 59°41' E 028°25'0 0.0
2017-Nov-15 21:00N 59°41' E 028°25'0 0.0
2017-Nov-15 20:30N 59°41' E 028°25'0 0.0
2017-Nov-15 20:00N 59°41' E 028°25'0 0.0
2017-Nov-15 19:18N 59°41' E 028°25'0 0.0
2017-Nov-15 19:00N 59°41' E 028°25'0 0.0
2017-Nov-15 18:30N 59°41' E 028°25'0 0.0
2017-Nov-15 18:00N 59°41' E 028°25'0 0.0
2017-Nov-15 17:30N 59°41' E 028°25'0 0.0
2017-Nov-15 17:00N 59°41' E 028°25'0 0.0
2017-Nov-15 16:30N 59°41' E 028°25'0 0.0
2017-Nov-15 16:00N 59°41' E 028°25'0 0.0
2017-Nov-15 15:30N 59°41' E 028°25'0 0.0
2017-Nov-15 15:00N 59°41' E 028°25'0 0.0
2017-Nov-15 14:21N 59°41' E 028°25'0 0.0
2017-Nov-15 13:54N 59°41' E 028°25'0 0.0
2017-Nov-15 13:24N 59°41' E 028°25'0 0.0
2017-Nov-15 12:51N 59°41' E 028°25'0 0.0
2017-Nov-15 12:24N 59°41' E 028°25'0 0.0
2017-Nov-15 11:54N 59°41' E 028°25'0 0.0
2017-Nov-15 11:24N 59°41' E 028°25'0 0.0
2017-Nov-15 10:54N 59°41' E 028°25'0 0.0
2017-Nov-15 10:27N 59°41' E 028°25'0 0.0
2017-Nov-15 09:57N 59°41' E 028°25'0 0.0
2017-Nov-15 09:27N 59°41' E 028°25'0 0.0
2017-Nov-15 08:57N 59°41' E 028°25'0 0.0
2017-Nov-15 08:27N 59°41' E 028°25'0 0.0
2017-Nov-15 07:57N 59°41' E 028°25'0 0.0
2017-Nov-15 07:30N 59°41' E 028°25'0 0.0
2017-Nov-15 07:00N 59°41' E 028°25'0 0.0
2017-Nov-15 06:27N 59°41' E 028°25'0 0.0
2017-Nov-15 06:00N 59°41' E 028°25'0 0.0
2017-Nov-15 05:30N 59°41' E 028°25'0 0.0
2017-Nov-15 04:57N 59°41' E 028°25'0 0.0
2017-Nov-15 04:30N 59°41' E 028°25'0 0.0
2017-Nov-15 04:00N 59°41' E 028°25'0 0.0
2017-Nov-15 03:30N 59°41' E 028°25'0 0.0
2017-Nov-15 03:00N 59°41' E 028°25'0 0.0
2017-Nov-15 02:30N 59°41' E 028°25'0 0.0
2017-Nov-15 02:00N 59°41' E 028°25'0 0.0
2017-Nov-15 01:30N 59°41' E 028°25'0 0.0
2017-Nov-15 01:00N 59°41' E 028°25'0 0.0
2017-Nov-15 00:21N 59°41' E 028°25'  

Dump ship's entire track history